Time;durP1;ratioP1;P1;durP2;ratioP2;P2;SDS_P1;SDS_P2;PMS_P1;PMS_P2;Temp;Humidity;BMP_temperature;BMP_pressure;BME280_temperature;BME280_humidity;BME280_pressure;Samples;Min_cycle;Max_cycle;Signal;HPM_P1;HPM_P2
2021/07/11 00:00:09;;;;;;;1999.90;999.90;;;17.40;99.90;;;;;;5033369;28;20515;-64
2021/07/11 00:02:35;;;;;;;1999.90;999.90;;;17.30;99.90;;;;;;5033483;28;20415;-63
2021/07/11 00:05:01;;;;;;;1999.90;999.90;;;17.30;99.90;;;;;;5032932;28;20403;-64
2021/07/11 00:07:29;;;;;;;1999.90;999.90;;;17.20;99.90;;;;;;5033352;28;20169;-64
2021/07/11 00:09:56;;;;;;;1999.90;999.90;;;17.20;99.90;;;;;;5033104;28;20926;-63
2021/07/11 00:12:22;;;;;;;1999.90;999.90;;;17.20;99.90;;;;;;5033208;28;20415;-63
2021/07/11 00:14:47;;;;;;;1999.90;999.90;;;17.10;99.90;;;;;;5032770;28;20661;-64
2021/07/11 00:17:13;;;;;;;1999.90;999.90;;;17.00;99.90;;;;;;5033109;28;20175;-64
2021/07/11 00:19:39;;;;;;;1999.90;999.90;;;16.90;99.90;;;;;;5032966;28;20198;-64
2021/07/11 00:22:04;;;;;;;1999.90;999.90;;;16.90;99.90;;;;;;5033110;28;20168;-64
2021/07/11 00:24:30;;;;;;;1999.90;999.90;;;16.90;99.90;;;;;;5032863;28;20183;-63
2021/07/11 00:26:56;;;;;;;1999.90;999.90;;;17.00;99.90;;;;;;5032847;28;20272;-64
2021/07/11 00:29:21;;;;;;;1999.90;999.90;;;17.10;99.90;;;;;;5032832;28;20273;-64
2021/07/11 00:31:47;;;;;;;1999.90;999.90;;;17.10;99.90;;;;;;5032836;28;20185;-64
2021/07/11 00:34:13;;;;;;;1999.90;999.90;;;17.10;99.90;;;;;;5032493;28;20164;-64
2021/07/11 00:36:39;;;;;;;1999.90;999.90;;;17.00;99.90;;;;;;5032847;28;20649;-64
2021/07/11 00:39:05;;;;;;;1999.90;999.90;;;17.10;99.90;;;;;;5032716;28;20406;-64
2021/07/11 00:41:30;;;;;;;1999.90;999.90;;;17.10;99.90;;;;;;5032399;28;20441;-64
2021/07/11 00:43:56;;;;;;;1999.90;999.90;;;17.20;99.90;;;;;;5032305;28;20303;-64
2021/07/11 00:46:22;;;;;;;1999.90;999.90;;;17.20;99.90;;;;;;5032502;28;20205;-63
2021/07/11 00:48:48;;;;;;;1999.90;999.90;;;17.20;99.90;;;;;;5032703;28;20195;-64
2021/07/11 00:51:13;;;;;;;1999.90;999.90;;;17.20;99.90;;;;;;5032451;28;20196;-64
2021/07/11 00:53:51;;;;;;;1999.90;999.90;;;17.30;99.90;;;;;;5032505;28;20168;-64
2021/07/11 00:56:17;;;;;;;1999.90;999.90;;;17.30;99.90;;;;;;5032681;28;20812;-64
2021/07/11 00:58:43;;;;;;;1999.90;999.90;;;17.40;99.90;;;;;;5032274;28;20403;-64
2021/07/11 01:01:12;;;;;;;1999.90;999.90;;;17.40;99.90;;;;;;5032224;28;20199;-64
2021/07/11 01:03:41;;;;;;;1999.90;999.90;;;17.40;99.90;;;;;;5032327;28;20408;-64
2021/07/11 01:06:07;;;;;;;1999.90;999.90;;;17.40;99.90;;;;;;5032069;28;20503;-64
2021/07/11 01:08:39;;;;;;;1999.90;999.90;;;17.40;99.90;;;;;;5032276;28;20489;-64
2021/07/11 01:11:07;;;;;;;1999.90;999.90;;;17.40;99.90;;;;;;5032145;28;20463;-64
2021/07/11 01:13:36;;;;;;;1999.90;999.90;;;17.30;99.90;;;;;;5032126;28;20396;-64
2021/07/11 01:16:12;;;;;;;1999.90;999.90;;;17.20;99.90;;;;;;5031870;28;20762;-64
2021/07/11 01:18:39;;;;;;;1999.90;999.90;;;17.20;99.90;;;;;;5032126;28;20412;-64
2021/07/11 01:21:21;;;;;;;1999.90;999.90;;;17.20;99.90;;;;;;5032049;28;20524;-64
2021/07/11 01:23:59;;;;;;;1999.90;999.90;;;17.20;99.90;;;;;;5032073;28;20503;-64
2021/07/11 01:26:26;;;;;;;1999.90;999.90;;;17.10;99.90;;;;;;5031960;28;20527;-64
2021/07/11 01:28:53;;;;;;;1999.90;999.90;;;17.10;99.90;;;;;;5032063;28;20407;-64
2021/07/11 01:31:21;;;;;;;1999.90;999.90;;;17.10;99.90;;;;;;5031917;28;20428;-64
2021/07/11 01:33:48;;;;;;;1999.90;999.90;;;17.20;99.90;;;;;;5031655;28;20777;-64
2021/07/11 01:36:16;;;;;;;1999.90;999.90;;;17.30;99.90;;;;;;5031909;28;20916;-64
2021/07/11 01:38:42;;;;;;;1999.90;999.90;;;17.30;99.90;;;;;;5032069;28;20411;-64
2021/07/11 01:41:10;;;;;;;1999.90;999.90;;;17.30;99.90;;;;;;5031673;28;20431;-64
2021/07/11 01:43:38;;;;;;;1999.90;999.90;;;17.40;99.90;;;;;;5031857;28;20449;-65
2021/07/11 01:46:07;;;;;;;1999.90;999.90;;;17.40;99.90;;;;;;5031731;28;20465;-64
2021/07/11 01:48:33;;;;;;;1999.90;999.90;;;17.30;99.90;;;;;;5031641;28;20802;-64
2021/07/11 01:50:59;;;;;;;1999.90;999.90;;;17.30;99.90;;;;;;5031620;28;20434;-64
2021/07/11 01:53:31;;;;;;;1999.90;999.90;;;17.30;99.90;;;;;;5031985;28;20924;-64
2021/07/11 01:55:57;;;;;;;1999.90;999.90;;;17.20;99.90;;;;;;5035552;28;20405;-64
2021/07/11 01:58:23;;;;;;;1999.90;999.90;;;17.10;99.90;;;;;;5035733;28;20418;-64
2021/07/11 02:00:51;;;;;;;1999.90;999.90;;;17.10;99.90;;;;;;5035534;28;20477;-65
2021/07/11 02:03:19;;;;;;;1999.90;999.90;;;17.10;99.90;;;;;;5035729;28;20407;-64
2021/07/11 02:05:45;;;;;;;1999.90;999.90;;;17.10;99.90;;;;;;5035213;28;20451;-64
2021/07/11 02:08:15;;;;;;;1999.90;999.90;;;17.10;99.90;;;;;;5035533;28;20412;-64
2021/07/11 02:10:44;;;;;;;1999.90;999.90;;;17.10;99.90;;;;;;5035619;28;20483;-64
2021/07/11 02:13:28;;;;;;;1999.90;999.90;;;17.10;99.90;;;;;;5035521;28;20399;-64
2021/07/11 02:15:56;;;;;;;1999.90;999.90;;;17.20;99.90;;;;;;5035217;28;20397;-64
2021/07/11 02:18:26;;;;;;;1999.90;999.90;;;17.20;99.90;;;;;;5035344;28;20400;-64
2021/07/11 02:20:55;;;;;;;1999.90;999.90;;;17.20;99.90;;;;;;5035208;28;20455;-64
2021/07/11 02:23:23;;;;;;;1999.90;999.90;;;17.20;99.90;;;;;;5035285;28;20398;-64
2021/07/11 02:25:49;;;;;;;1999.90;999.90;;;17.10;99.90;;;;;;5034896;28;20974;-64
2021/07/11 02:28:17;;;;;;;1999.90;999.90;;;17.10;99.90;;;;;;5035303;28;20410;-63
2021/07/11 02:31:02;;;;;;;1999.90;999.90;;;17.10;99.90;;;;;;5035105;28;20429;-64
2021/07/11 02:33:46;;;;;;;1999.90;999.90;;;17.10;99.90;;;;;;5035168;28;20401;-64
2021/07/11 02:36:25;;;;;;;1999.90;999.90;;;17.00;99.90;;;;;;5034994;28;20482;-64
2021/07/11 02:39:07;;;;;;;1999.90;999.90;;;17.00;99.90;;;;;;5035026;28;20417;-64
2021/07/11 02:41:35;;;;;;;1999.90;999.90;;;17.00;99.90;;;;;;5035074;28;20430;-64
2021/07/11 02:44:04;;;;;;;1999.90;999.90;;;16.90;99.90;;;;;;5034623;28;20429;-64
2021/07/11 02:46:41;;;;;;;1999.90;999.90;;;16.90;99.90;;;;;;5034693;28;20862;-64
2021/07/11 02:49:17;;;;;;;1999.90;999.90;;;16.90;99.90;;;;;;5034787;28;20398;-64
2021/07/11 02:51:46;;;;;;;1999.90;999.90;;;16.90;99.90;;;;;;5034564;28;20537;-64
2021/07/11 02:54:17;;;;;;;1999.90;999.90;;;16.90;99.90;;;;;;5034411;28;20416;-64
2021/07/11 02:56:46;;;;;;;1999.90;999.90;;;16.80;99.90;;;;;;5034635;28;20465;-65
2021/07/11 02:59:13;;;;;;;1999.90;999.90;;;16.80;99.90;;;;;;5034671;28;20415;-64
2021/07/11 03:01:40;;;;;;;1999.90;999.90;;;16.80;99.90;;;;;;5034400;28;20427;-64
2021/07/11 03:04:05;;;;;;;1999.90;999.90;;;16.80;99.90;;;;;;5034259;28;20490;-64
2021/07/11 03:06:33;;;;;;;1999.90;999.90;;;16.90;99.90;;;;;;5034317;28;20547;-64
2021/07/11 03:08:59;;;;;;;1999.90;999.90;;;16.80;99.90;;;;;;5034459;28;20411;-64
2021/07/11 03:11:27;;;;;;;1999.90;999.90;;;16.90;99.90;;;;;;5034347;28;20508;-64
2021/07/11 03:13:55;;;;;;;1999.90;999.90;;;16.90;99.90;;;;;;5034069;28;20449;-65
2021/07/11 03:16:22;;;;;;;1999.90;999.90;;;16.80;99.90;;;;;;5034209;28;20418;-65
2021/07/11 03:18:50;;;;;;;1999.90;999.90;;;16.80;99.90;;;;;;5034260;28;20413;-64
2021/07/11 03:21:16;;;;;;;1999.90;999.90;;;16.90;99.90;;;;;;5034019;28;20449;-64
2021/07/11 03:23:42;;;;;;;1999.90;999.90;;;16.80;99.90;;;;;;5034079;28;20408;-64
2021/07/11 03:26:08;;;;;;;1999.90;999.90;;;16.80;99.90;;;;;;5033852;28;20446;-64
2021/07/11 03:28:35;;;;;;;1999.90;999.90;;;16.80;99.90;;;;;;5034094;28;20831;-64
2021/07/11 03:31:06;;;;;;;1999.90;999.90;;;16.70;99.90;;;;;;5034035;28;20560;-64
2021/07/11 03:33:36;;;;;;;1999.90;999.90;;;16.80;99.90;;;;;;5033970;28;20450;-64
2021/07/11 03:36:02;;;;;;;1999.90;999.90;;;16.80;99.90;;;;;;5033844;28;20418;-64
2021/07/11 03:38:44;;;;;;;1999.90;999.90;;;16.80;99.90;;;;;;5033869;28;20410;-64
2021/07/11 03:41:15;;;;;;;1999.90;999.90;;;16.80;99.90;;;;;;5033737;28;20436;-64
2021/07/11 03:43:44;;;;;;;1999.90;999.90;;;16.80;99.90;;;;;;5033650;28;20779;-65
2021/07/11 03:46:12;;;;;;;1999.90;999.90;;;16.80;99.90;;;;;;5033655;28;20523;-65
2021/07/11 03:48:40;;;;;;;1999.90;999.90;;;16.80;99.90;;;;;;5034248;28;20437;-64
2021/07/11 03:51:08;;;;;;;1999.90;999.90;;;16.80;99.90;;;;;;5033911;28;20803;-65
2021/07/11 03:53:36;;;;;;;1999.90;999.90;;;16.80;99.90;;;;;;5033770;28;20805;-64
2021/07/11 03:56:03;;;;;;;1999.90;999.90;;;16.80;99.90;;;;;;5033467;28;20409;-64
2021/07/11 03:58:36;;;;;;;1999.90;999.90;;;16.80;99.90;;;;;;5033883;28;20424;-64
2021/07/11 04:01:02;;;;;;;1999.90;999.90;;;16.80;99.90;;;;;;5033371;28;20541;-64
2021/07/11 04:03:33;;;;;;;1999.90;999.90;;;16.80;99.90;;;;;;5033362;28;20403;-64
2021/07/11 04:06:01;;;;;;;1999.90;999.90;;;16.80;99.90;;;;;;5032930;28;20450;-64
2021/07/11 04:08:28;;;;;;;1999.90;999.90;;;16.80;99.90;;;;;;5033775;28;20818;-64
2021/07/11 04:10:58;;;;;;;1999.90;999.90;;;16.80;99.90;;;;;;5033490;28;20427;-64
2021/07/11 04:13:23;;;;;;;1999.90;999.90;;;16.80;99.90;;;;;;5033221;28;20414;-64
2021/07/11 04:15:55;;;;;;;1999.90;999.90;;;16.80;99.90;;;;;;5032749;28;20412;-64
2021/07/11 04:18:23;;;;;;;1999.90;999.90;;;16.80;99.90;;;;;;5032720;28;20641;-64
2021/07/11 04:20:53;;;;;;;1999.90;999.90;;;16.80;99.90;;;;;;5032850;28;20539;-64
2021/07/11 04:23:23;;;;;;;1999.90;999.90;;;16.80;99.90;;;;;;5032941;28;20912;-64
2021/07/11 04:25:49;;;;;;;1999.90;999.90;;;16.70;99.90;;;;;;5032583;28;20443;-64
2021/07/11 04:28:16;;;;;;;1999.90;999.90;;;16.70;99.90;;;;;;5032876;28;20824;-64
2021/07/11 04:30:41;;;;;;;1999.90;999.90;;;16.70;99.90;;;;;;5032773;28;20459;-64
2021/07/11 04:33:11;;;;;;;1999.90;999.90;;;16.70;99.90;;;;;;5032763;28;20404;-64
2021/07/11 04:35:36;;;;;;;1999.90;999.90;;;16.80;99.90;;;;;;5032509;28;20166;-64
2021/07/11 04:38:02;;;;;;;1999.90;999.90;;;16.80;99.90;;;;;;5032738;28;20955;-64
2021/07/11 04:40:28;;;;;;;1999.90;999.90;;;16.70;99.90;;;;;;5032648;28;20670;-64
2021/07/11 04:42:53;;;;;;;1999.90;999.90;;;16.80;99.90;;;;;;5032632;28;20195;-64
2021/07/11 04:45:19;;;;;;;1999.90;999.90;;;16.80;99.90;;;;;;5032157;28;20203;-64
2021/07/11 04:47:45;;;;;;;1999.90;999.90;;;16.80;99.90;;;;;;5032498;28;20595;-64
2021/07/11 04:50:11;;;;;;;1999.90;999.90;;;16.80;99.90;;;;;;5032488;28;20551;-64
2021/07/11 04:52:41;;;;;;;1999.90;999.90;;;16.80;99.90;;;;;;5032458;28;20566;-64
2021/07/11 04:55:12;;;;;;;1999.90;999.90;;;16.80;99.90;;;;;;5032267;28;20501;-64
2021/07/11 04:57:39;;;;;;;1999.90;999.90;;;16.80;99.90;;;;;;5032434;28;20460;-64
2021/07/11 05:00:08;;;;;;;1999.90;999.90;;;16.80;99.90;;;;;;5032228;28;20425;-64
2021/07/11 05:02:33;;;;;;;1999.90;999.90;;;16.80;99.90;;;;;;5032239;28;20896;-65
2021/07/11 05:05:00;;;;;;;1999.90;999.90;;;16.90;99.90;;;;;;5032019;28;20407;-65
2021/07/11 05:07:26;;;;;;;1999.90;999.90;;;16.80;99.90;;;;;;5032189;28;20201;-64
2021/07/11 05:09:52;;;;;;;1999.90;999.90;;;16.90;99.90;;;;;;5032209;28;20430;-64
2021/07/11 05:12:17;;;;;;;1999.90;999.90;;;16.90;99.90;;;;;;5032179;28;20646;-64
2021/07/11 05:14:43;;;;;;;1999.90;999.90;;;16.90;99.90;;;;;;5031878;28;20179;-64
2021/07/11 05:17:09;;;;;;;1999.90;999.90;;;16.90;99.90;;;;;;5032298;28;20545;-64
2021/07/11 05:19:36;;;;;;;1999.90;999.90;;;17.00;99.90;;;;;;5031829;28;20407;-65
2021/07/11 05:22:03;;;;;;;1999.90;999.90;;;17.00;99.90;;;;;;5032111;28;20440;-64
2021/07/11 05:24:28;;;;;;;1999.90;999.90;;;17.00;99.90;;;;;;5031763;28;20414;-64
2021/07/11 05:26:54;;;;;;;1999.90;999.90;;;17.10;99.90;;;;;;5031918;28;20449;-65
2021/07/11 05:29:20;;;;;;;1999.90;999.90;;;17.10;99.90;;;;;;5031827;28;20203;-65
2021/07/11 05:31:45;;;;;;;1999.90;999.90;;;17.20;99.90;;;;;;5032046;28;20217;-65
2021/07/11 05:34:11;;;;;;;1999.90;999.90;;;17.20;99.90;;;;;;5031622;28;20237;-64
2021/07/11 05:36:37;;;;;;;1999.90;999.90;;;17.20;99.90;;;;;;5031999;28;20265;-65
2021/07/11 05:39:04;;;;;;;1999.90;999.90;;;17.20;99.90;;;;;;5031900;28;20226;-65
2021/07/11 05:41:30;;;;;;;1999.90;999.90;;;17.30;99.90;;;;;;5031956;28;20968;-65
2021/07/11 05:43:59;;;;;;;1999.90;999.90;;;17.30;99.90;;;;;;5031754;28;20412;-65
2021/07/11 05:46:25;;;;;;;1999.90;999.90;;;17.40;99.90;;;;;;5032316;28;20204;-65
2021/07/11 05:48:51;;;;;;;1999.90;999.90;;;17.40;99.90;;;;;;5032138;28;20406;-65
2021/07/11 05:51:16;;;;;;;1999.90;999.90;;;17.40;99.90;;;;;;5032027;28;20488;-65
2021/07/11 05:53:42;;;;;;;1999.90;999.90;;;17.40;99.90;;;;;;5031934;28;20172;-65
2021/07/11 05:56:07;;;;;;;1999.90;999.90;;;17.50;99.90;;;;;;5031765;28;20238;-65
2021/07/11 05:58:33;;;;;;;1999.90;999.90;;;17.60;99.90;;;;;;5031844;28;20174;-65
2021/07/11 06:00:59;;;;;;;1999.90;999.90;;;17.70;99.90;;;;;;5031704;28;20192;-64
2021/07/11 06:03:25;;;;;;;1999.90;999.90;;;17.70;99.90;;;;;;5031760;28;20602;-65
2021/07/11 06:05:50;;;;;;;1999.90;999.90;;;17.70;99.90;;;;;;5031406;28;20210;-65
2021/07/11 06:08:16;;;;;;;1999.90;999.90;;;17.80;99.90;;;;;;5031524;28;20199;-65
2021/07/11 06:10:41;;;;;;;1999.90;999.90;;;17.80;99.90;;;;;;5031524;28;20191;-65
2021/07/11 06:13:07;;;;;;;1999.90;999.90;;;17.80;99.90;;;;;;5031643;28;20168;-65
2021/07/11 06:15:33;;;;;;;1999.90;999.90;;;17.90;99.90;;;;;;5031553;28;20174;-65
2021/07/11 06:17:59;;;;;;;1999.90;999.90;;;17.80;99.90;;;;;;5031927;28;20169;-65
2021/07/11 06:20:24;;;;;;;1999.90;999.90;;;17.70;99.90;;;;;;5031536;28;20213;-65
2021/07/11 06:22:50;;;;;;;1999.90;999.90;;;17.80;99.90;;;;;;5031542;28;20501;-65
2021/07/11 06:25:16;;;;;;;1999.90;999.90;;;17.80;99.90;;;;;;5031190;28;20177;-65
2021/07/11 06:27:43;;;;;;;1999.90;999.90;;;17.80;99.90;;;;;;5031595;28;20408;-65
2021/07/11 06:30:14;;;;;;;1999.90;999.90;;;17.90;99.90;;;;;;5031547;28;20502;-65
2021/07/11 06:32:41;;;;;;;1999.90;999.90;;;17.90;99.90;;;;;;5031845;28;20414;-65
2021/07/11 06:35:10;;;;;;;1999.90;999.90;;;18.00;99.90;;;;;;5031318;28;20440;-65
2021/07/11 06:37:35;;;;;;;1999.90;999.90;;;18.00;99.90;;;;;;5031728;28;20790;-65
2021/07/11 06:40:01;;;;;;;1999.90;999.90;;;18.00;99.90;;;;;;5032505;28;20431;-65
2021/07/11 06:42:27;;;;;;;1999.90;999.90;;;18.00;99.90;;;;;;5034834;28;20175;-65
2021/07/11 06:44:52;;;;;;;1999.90;999.90;;;18.00;99.90;;;;;;5034609;28;20173;-65
2021/07/11 06:47:18;;;;;;;1999.90;999.90;;;18.00;99.90;;;;;;5034776;28;20253;-65
2021/07/11 06:49:44;;;;;;;1999.90;999.90;;;18.10;99.90;;;;;;5035091;28;20178;-65
2021/07/11 06:52:09;;;;;;;1999.90;999.90;;;18.10;99.90;;;;;;5035387;28;20284;-65
2021/07/11 06:54:35;;;;;;;1999.90;999.90;;;18.00;99.90;;;;;;5034614;28;20263;-65
2021/07/11 06:57:01;;;;;;;1999.90;999.90;;;18.10;99.90;;;;;;5035114;28;20207;-65
2021/07/11 06:59:26;;;;;;;1999.90;999.90;;;18.10;99.90;;;;;;5035328;28;20270;-66
2021/07/11 07:01:52;;;;;;;1999.90;999.90;;;18.00;99.90;;;;;;5034950;28;20283;-66
2021/07/11 07:04:17;;;;;;;1999.90;999.90;;;17.90;99.90;;;;;;5034770;28;20260;-65
2021/07/11 07:06:43;;;;;;;1999.90;999.90;;;17.90;99.90;;;;;;5034921;28;20694;-65
2021/07/11 07:09:09;;;;;;;1999.90;999.90;;;18.00;99.90;;;;;;5034572;28;20164;-65
2021/07/11 07:11:34;;;;;;;1999.90;999.90;;;18.10;99.90;;;;;;5034404;28;20193;-64
2021/07/11 07:14:00;;;;;;;1999.90;999.90;;;18.20;99.90;;;;;;5034368;28;20156;-64
2021/07/11 07:16:26;;;;;;;1999.90;999.90;;;18.30;99.90;;;;;;5034527;28;20600;-65
2021/07/11 07:18:51;;;;;;;1999.90;999.90;;;18.40;99.90;;;;;;5034500;28;20413;-65
2021/07/11 07:21:17;;;;;;;1999.90;999.90;;;18.50;99.90;;;;;;5034326;28;20275;-65
2021/07/11 07:23:44;;;;;;;1999.90;999.90;;;18.60;99.90;;;;;;5034082;28;20186;-65
2021/07/11 07:26:10;;;;;;;1999.90;999.90;;;18.70;99.90;;;;;;5034442;28;20224;-64
2021/07/11 07:28:36;;;;;;;1999.90;999.90;;;18.50;99.90;;;;;;5034110;28;20412;-64
2021/07/11 07:31:02;;;;;;;1999.90;999.90;;;18.50;99.90;;;;;;5034050;28;20187;-65
2021/07/11 07:33:28;;;;;;;1999.90;999.90;;;18.50;99.90;;;;;;5034148;28;20403;-64
2021/07/11 07:35:54;;;;;;;1999.90;999.90;;;18.50;99.90;;;;;;5033887;28;20182;-64
2021/07/11 07:38:22;;;;;;;1999.90;999.90;;;18.60;99.90;;;;;;5034092;28;20411;-65
2021/07/11 07:40:48;;;;;;;1999.90;999.90;;;18.70;99.90;;;;;;5033730;28;20207;-65
2021/07/11 07:43:14;;;;;;;1999.90;999.90;;;18.80;99.90;;;;;;5034053;28;20418;-64
2021/07/11 07:45:44;;;;;;;1999.90;999.90;;;18.90;99.90;;;;;;5033532;28;20554;-65
2021/07/11 07:48:11;;;;;;;1999.90;999.90;;;19.10;99.90;;;;;;5033911;28;20173;-65
2021/07/11 07:50:37;;;;;;;1999.90;999.90;;;19.40;99.90;;;;;;5033661;28;20423;-64
2021/07/11 07:53:03;;;;;;;1999.90;999.90;;;19.60;99.90;;;;;;5032878;28;20412;-65
2021/07/11 07:55:31;;;;;;;1999.90;999.90;;;19.80;99.90;;;;;;5033511;28;20402;-65
2021/07/11 07:57:57;;;;;;;1999.90;999.90;;;19.80;99.90;;;;;;5034054;28;20425;-64
2021/07/11 08:00:24;;;;;;;1999.90;999.90;;;19.90;99.90;;;;;;5033372;28;20524;-65
2021/07/11 08:02:51;;;;;;;1999.90;999.90;;;19.90;99.90;;;;;;5033449;28;20403;-65
2021/07/11 08:05:16;;;;;;;1999.90;999.90;;;19.90;99.90;;;;;;5033004;28;20418;-65
2021/07/11 08:07:42;;;;;;;1999.90;999.90;;;19.90;99.90;;;;;;5033307;28;20397;-65
2021/07/11 08:10:10;;;;;;;1999.90;999.90;;;20.00;99.90;;;;;;5033360;28;20199;-65
2021/07/11 08:12:36;;;;;;;1999.90;999.90;;;20.10;99.90;;;;;;5033617;28;20182;-65
2021/07/11 08:15:05;;;;;;;1999.90;999.90;;;20.20;99.90;;;;;;5033053;28;20399;-65
2021/07/11 08:17:32;;;;;;;1999.90;999.90;;;20.30;99.90;;;;;;5033025;28;20423;-65
2021/07/11 08:19:58;;;;;;;1999.90;999.90;;;20.60;99.90;;;;;;5032901;28;20450;-64
2021/07/11 08:22:24;;;;;;;1999.90;999.90;;;20.90;99.90;;;;;;5033045;28;20406;-65
2021/07/11 08:24:49;;;;;;;1999.90;999.90;;;21.10;99.90;;;;;;5032672;28;20437;-65
2021/07/11 08:27:15;;;;;;;1999.90;999.90;;;21.30;99.90;;;;;;5032984;28;20200;-65
2021/07/11 08:29:40;;;;;;;1999.90;999.90;;;21.60;99.90;;;;;;5032826;28;20257;-64
2021/07/11 08:32:06;;;;;;;1999.90;999.90;;;21.80;99.90;;;;;;5032963;28;20240;-65
2021/07/11 08:34:32;;;;;;;1999.90;999.90;;;21.70;99.90;;;;;;5032545;28;20169;-64
2021/07/11 08:37:02;;;;;;;1999.90;999.90;;;21.80;99.90;;;;;;5032759;28;20420;-65
2021/07/11 08:39:28;;;;;;;1999.90;999.90;;;21.70;99.90;;;;;;5032812;28;20177;-65
2021/07/11 08:41:56;;;;;;;1999.90;999.90;;;21.50;99.90;;;;;;5032657;28;20511;-65
2021/07/11 08:44:23;;;;;;;1999.90;999.90;;;21.60;99.90;;;;;;5032462;28;20178;-65
2021/07/11 08:46:49;;;;;;;1999.90;999.90;;;21.60;99.90;;;;;;5032514;28;20461;-65
2021/07/11 08:49:15;;;;;;;1999.90;999.90;;;21.60;99.90;;;;;;5032477;28;20399;-65
2021/07/11 08:51:40;;;;;;;1999.90;999.90;;;21.70;99.90;;;;;;5032669;28;20185;-65
2021/07/11 08:54:06;;;;;;;1999.90;999.90;;;21.70;99.90;;;;;;5032266;28;20661;-66
2021/07/11 08:56:31;;;;;;;1999.90;999.90;;;21.80;99.90;;;;;;5032623;28;20633;-65
2021/07/11 08:58:58;;;;;;;1999.90;999.90;;;21.70;99.90;;;;;;5032680;28;20257;-65
2021/07/11 09:01:28;;;;;;;1999.90;999.90;;;21.70;99.90;;;;;;5032681;28;20192;-65
2021/07/11 09:04:02;;;;;;;1999.90;999.90;;;21.70;99.90;;;;;;5032245;28;20419;-65
2021/07/11 09:06:43;;;;;;;1999.90;999.90;;;21.60;99.90;;;;;;5032606;28;20450;-65
2021/07/11 09:09:11;;;;;;;1999.90;999.90;;;21.60;99.90;;;;;;5032608;28;20487;-65
2021/07/11 09:11:51;;;;;;;1999.90;999.90;;;21.70;99.90;;;;;;5032271;28;20430;-65
2021/07/11 09:14:28;;;;;;;1999.90;999.90;;;22.00;99.90;;;;;;5032107;28;21056;-65
2021/07/11 09:16:56;;;;;;;1999.90;999.90;;;22.00;99.90;;;;;;5032784;28;20410;-65
2021/07/11 09:19:30;;;;;;;1999.90;999.90;;;22.00;99.90;;;;;;5032634;28;20411;-65
2021/07/11 09:21:59;;;;;;;1999.90;999.90;;;21.80;99.90;;;;;;5032494;28;20443;-65
2021/07/11 09:24:26;;;;;;;1999.90;999.90;;;21.70;99.90;;;;;;5032017;28;20446;-65
2021/07/11 09:26:54;;;;;;;1999.90;999.90;;;21.80;99.90;;;;;;5032032;28;20459;-65
2021/07/11 09:29:31;;;;;;;1999.90;999.90;;;21.90;99.90;;;;;;5033227;28;20413;-66
2021/07/11 09:31:57;;;;;;;1999.90;999.90;;;22.10;99.90;;;;;;5032733;28;20485;-65
2021/07/11 09:34:27;;;;;;;1999.90;999.90;;;22.30;99.90;;;;;;5032283;28;20407;-65
2021/07/11 09:37:16;;;;;;;1999.90;999.90;;;22.50;99.90;;;;;;5032512;28;20194;-65
2021/07/11 09:39:51;;;;;;;1999.90;999.90;;;22.80;99.90;;;;;;5032501;28;20848;-65
2021/07/11 09:42:24;;;;;;;1999.90;999.90;;;23.00;99.90;;;;;;5032512;28;20973;-65
2021/07/11 09:44:50;;;;;;;1999.90;999.90;;;23.00;99.90;;;;;;5032235;28;20435;-66
2021/07/11 09:47:17;;;;;;;1999.90;999.90;;;23.10;99.90;;;;;;5031889;28;20462;-65
2021/07/11 09:49:55;;;;;;;1999.90;999.90;;;23.20;99.90;;;;;;5039879;28;20201;-65
2021/07/11 09:52:21;;;;;;;1999.90;999.90;;;23.20;99.90;;;;;;5031969;28;20842;-65
2021/07/11 09:54:57;;;;;;;1999.90;999.90;;;23.10;99.90;;;;;;5031669;28;20443;-65
2021/07/11 09:57:34;;;;;;;1999.90;999.90;;;23.00;99.90;;;;;;5032723;28;20412;-65
2021/07/11 10:00:10;;;;;;;1999.90;999.90;;;22.70;99.90;;;;;;5031691;28;20432;-65
2021/07/11 10:02:35;;;;;;;1999.90;999.90;;;22.50;99.90;;;;;;5034453;28;20802;-65
2021/07/11 10:05:01;;;;;;;1999.90;999.90;;;22.10;99.90;;;;;;5039489;28;20424;-65
2021/07/11 10:07:27;;;;;;;1999.90;999.90;;;22.10;99.90;;;;;;5037313;28;20205;-66
2021/07/11 10:09:53;;;;;;;1999.90;999.90;;;21.90;99.90;;;;;;5031951;28;20368;-65
2021/07/11 10:12:19;;;;;;;1999.90;999.90;;;21.50;99.90;;;;;;5032224;28;20968;-65
2021/07/11 10:14:45;;;;;;;1999.90;999.90;;;21.30;99.90;;;;;;5032753;28;20486;-65
2021/07/11 10:17:13;;;;;;;1999.90;999.90;;;21.20;99.90;;;;;;5035716;28;20708;-66
2021/07/11 10:19:38;;;;;;;1999.90;999.90;;;21.20;99.90;;;;;;5033204;28;20222;-65
2021/07/11 10:22:14;;;;;;;1999.90;999.90;;;21.30;99.90;;;;;;5035085;28;20421;-65
2021/07/11 10:24:42;;;;;;;1999.90;999.90;;;21.50;99.90;;;;;;5034432;28;20227;-65
2021/07/11 10:27:36;;;;;;;1999.90;999.90;;;21.70;99.90;;;;;;5033413;28;20557;-65
2021/07/11 10:30:03;;;;;;;1999.90;999.90;;;21.70;99.90;;;;;;5016723;28;21021;-65
2021/07/11 10:32:31;;;;;;;1999.90;999.90;;;21.90;99.90;;;;;;5033792;28;20507;-65
2021/07/11 10:35:19;;;;;;;1999.90;999.90;;;22.20;99.90;;;;;;5043142;28;20461;-66
2021/07/11 10:37:48;;;;;;;1999.90;999.90;;;22.90;99.90;;;;;;5051759;28;20417;-66
2021/07/11 10:40:18;;;;;;;1999.90;999.90;;;23.30;99.90;;;;;;5053146;28;20408;-66
2021/07/11 10:42:44;;;;;;;1999.90;999.90;;;23.40;99.90;;;;;;5052898;28;20421;-65
2021/07/11 10:45:13;;;;;;;1999.90;999.90;;;23.40;99.90;;;;;;5055431;28;20788;-65
2021/07/11 10:47:40;;;;;;;1999.90;999.90;;;23.20;99.90;;;;;;5056472;28;20467;-66
2021/07/11 10:50:28;;;;;;;1999.90;999.90;;;23.30;99.90;;;;;;5055856;28;20460;-65
2021/07/11 10:52:58;;;;;;;1999.90;999.90;;;23.30;99.90;;;;;;5052719;28;20451;-65
2021/07/11 10:55:33;;;;;;;1999.90;999.90;;;23.40;99.90;;;;;;5052643;28;20483;-65
2021/07/11 10:58:18;;;;;;;1999.90;999.90;;;23.70;99.90;;;;;;5051166;28;20413;-65
2021/07/11 11:00:47;;;;;;;1999.90;999.90;;;23.90;99.90;;;;;;5051514;28;20437;-65
2021/07/11 11:03:23;;;;;;;1999.90;999.90;;;23.90;99.90;;;;;;5051890;28;20409;-65
2021/07/11 11:05:51;;;;;;;1999.90;999.90;;;23.80;99.90;;;;;;5051341;28;20460;-65
2021/07/11 11:08:22;;;;;;;1999.90;999.90;;;23.50;99.90;;;;;;5052123;28;20418;-65
2021/07/11 11:10:52;;;;;;;1999.90;999.90;;;23.40;99.90;;;;;;5052490;28;20429;-65
2021/07/11 11:13:19;;;;;;;1999.90;999.90;;;22.90;99.90;;;;;;5051758;28;20413;-65
2021/07/11 11:15:48;;;;;;;1999.90;999.90;;;22.70;99.90;;;;;;5051700;28;20923;-65
2021/07/11 11:18:23;;;;;;;1999.90;999.90;;;22.70;99.90;;;;;;5052259;28;20408;-65
2021/07/11 11:20:51;;;;;;;1999.90;999.90;;;22.50;99.90;;;;;;5051040;28;20439;-65
2021/07/11 11:23:16;;;;;;;1999.90;999.90;;;22.40;99.90;;;;;;5051700;28;20412;-65
2021/07/11 11:25:43;;;;;;;1999.90;999.90;;;22.20;99.90;;;;;;5051500;28;21003;-65
2021/07/11 11:28:09;;;;;;;1999.90;999.90;;;22.20;99.90;;;;;;5051809;28;20233;-65
2021/07/11 11:30:36;;;;;;;1999.90;999.90;;;22.10;99.90;;;;;;5052132;28;20427;-65
2021/07/11 11:33:02;;;;;;;1999.90;999.90;;;22.10;99.90;;;;;;5052345;28;20526;-65
2021/07/11 11:35:34;;;;;;;1999.90;999.90;;;22.20;99.90;;;;;;5050735;28;20405;-65
2021/07/11 11:38:06;;;;;;;1999.90;999.90;;;22.20;99.90;;;;;;5051578;28;20900;-65
2021/07/11 11:40:35;;;;;;;1999.90;999.90;;;22.20;99.90;;;;;;5051797;28;20437;-65
2021/07/11 11:43:04;;;;;;;1999.90;999.90;;;22.20;99.90;;;;;;5050968;28;20420;-65
2021/07/11 11:45:31;;;;;;;1999.90;999.90;;;22.30;99.90;;;;;;5051336;28;20431;-65
2021/07/11 11:48:05;;;;;;;1999.90;999.90;;;22.10;99.90;;;;;;5051523;28;20499;-65
2021/07/11 11:50:36;;;;;;;1999.90;999.90;;;22.10;99.90;;;;;;5051373;28;20484;-65
2021/07/11 11:53:15;;;;;;;1999.90;999.90;;;22.00;99.90;;;;;;5051881;28;20414;-65
2021/07/11 11:55:52;;;;;;;1999.90;999.90;;;21.90;99.90;;;;;;5051454;28;20549;-65
2021/07/11 11:58:31;;;;;;;1999.90;999.90;;;21.90;99.90;;;;;;5051019;28;20892;-65
2021/07/11 12:01:05;;;;;;;1999.90;999.90;;;21.90;99.90;;;;;;5051156;28;20483;-65
2021/07/11 12:03:31;;;;;;;1999.90;999.90;;;21.80;99.90;;;;;;5051067;28;20928;-65